Time;durP1;ratioP1;P1;durP2;ratioP2;P2;SDS_P1;SDS_P2;PMS_P1;PMS_P2;Temp;Humidity;BMP_temperature;BMP_pressure;BME280_temperature;BME280_humidity;BME280_pressure;Samples;Min_cycle;Max_cycle;Signal;HPM_P1;HPM_P2
2023/08/26 00:01:23;;;;;;;10.40;8.10;;;;;;;26.07;63.39;97004.50;5090302;28;20184;-75
2023/08/26 00:03:50;;;;;;;11.67;8.67;;;;;;;26.08;63.08;97003.53;5091178;28;20223;-75
2023/08/26 00:06:18;;;;;;;11.43;6.90;;;;;;;25.79;63.72;97002.19;5107916;28;20183;-72
2023/08/26 00:08:46;;;;;;;8.30;7.47;;;;;;;25.40;65.04;97003.75;5109600;28;20203;-73
2023/08/26 00:11:13;;;;;;;9.97;7.77;;;;;;;25.47;65.02;97010.06;5108646;28;20226;-72
2023/08/26 00:13:41;;;;;;;10.00;7.70;;;;;;;25.68;64.48;97006.97;5090503;28;20187;-73
2023/08/26 00:16:08;;;;;;;10.23;7.43;;;;;;;25.64;64.44;96987.91;5109142;28;20188;-74
2023/08/26 00:18:35;;;;;;;8.60;7.53;;;;;;;25.75;64.04;97014.13;5107592;28;20742;-75
2023/08/26 00:21:03;;;;;;;9.73;7.80;;;;;;;25.72;63.84;97008.28;5108893;28;20277;-72
2023/08/26 00:23:31;;;;;;;9.20;7.37;;;;;;;25.59;64.49;97010.63;5107216;28;20219;-71
2023/08/26 00:25:58;;;;;;;9.77;8.03;;;;;;;25.34;65.08;97006.22;5090955;28;20191;-71
2023/08/26 00:28:25;;;;;;;10.83;8.30;;;;;;;25.19;65.20;97005.16;5108040;28;20703;-72
2023/08/26 00:31:00;;;;;;;9.17;8.20;;;;;;;25.19;65.40;97000.72;5090010;28;20191;-72
2023/08/26 00:33:27;;;;;;;9.30;7.70;;;;;;;25.19;65.86;97000.72;5090593;28;20183;-72
2023/08/26 00:35:54;;;;;;;9.27;8.27;;;;;;;25.19;65.89;97002.53;5107300;28;20662;-70
2023/08/26 00:38:23;;;;;;;9.33;8.33;;;;;;;25.22;65.52;96992.44;5073976;28;20214;-72
2023/08/26 00:40:50;;;;;;;9.97;8.03;;;;;;;25.36;65.57;97004.22;5089067;28;20183;-72
2023/08/26 00:43:17;;;;;;;11.97;7.47;;;;;;;25.40;64.67;96993.16;5090459;28;20900;-73
2023/08/26 00:45:49;;;;;;;8.67;7.77;;;;;;;25.44;65.51;97001.63;5089529;28;20183;-71
2023/08/26 00:48:18;;;;;;;9.13;7.60;;;;;;;25.78;64.98;97005.81;5089702;28;20236;-72
2023/08/26 00:50:48;;;;;;;9.53;8.43;;;;;;;25.73;64.93;96991.41;5090248;28;20195;-73
2023/08/26 00:53:16;;;;;;;11.00;8.37;;;;;;;25.72;65.91;97003.00;5106948;28;20219;-73
2023/08/26 00:55:44;;;;;;;9.90;8.63;;;;;;;25.65;65.58;97005.50;5108257;28;20690;-79
2023/08/26 00:58:14;;;;;;;10.80;7.77;;;;;;;25.72;65.04;97010.94;5106751;28;20192;-72
2023/08/26 01:00:41;;;;;;;8.90;8.00;;;;;;;25.69;64.82;97014.78;5108415;28;20677;-72
2023/08/26 01:03:09;;;;;;;13.37;7.77;;;;;;;25.75;65.33;97000.84;5089214;28;20620;-70
2023/08/26 01:05:36;;;;;;;9.70;8.07;;;;;;;25.78;64.63;96995.19;5089380;28;20564;-71
2023/08/26 01:08:06;;;;;;;10.20;9.20;;;;;;;25.74;64.56;96998.34;5090015;28;20191;-72
2023/08/26 01:10:40;;;;;;;12.23;9.63;;;;;;;25.70;65.02;96997.84;5088143;28;20184;-71
2023/08/26 01:13:14;;;;;;;9.23;8.20;;;;;;;25.73;64.68;96992.22;5089712;28;20191;-73
2023/08/26 01:15:49;;;;;;;10.87;9.07;;;;;;;25.60;64.80;96991.88;5088376;28;20475;-71
2023/08/26 01:18:17;;;;;;;10.53;7.90;;;;;;;25.33;65.97;96997.44;5072541;28;20213;-71
2023/08/26 01:20:45;;;;;;;10.37;8.77;;;;;;;24.90;67.17;96992.31;5107878;28;20195;-71
2023/08/26 01:23:23;;;;;;;13.63;10.00;;;;;;;24.77;68.16;96989.31;5106428;28;20226;-71
2023/08/26 01:25:52;;;;;;;14.20;9.20;;;;;;;24.82;68.30;96989.63;5089699;28;20270;-73
2023/08/26 01:28:19;;;;;;;12.00;8.67;;;;;;;25.04;67.42;96986.41;5088163;28;20187;-72
2023/08/26 01:30:49;;;;;;;12.10;8.63;;;;;;;25.18;67.34;96988.47;5073379;28;20191;-71
2023/08/26 01:33:22;;;;;;;12.97;8.83;;;;;;;25.24;66.31;96990.47;5088966;28;20713;-72
2023/08/26 01:35:57;;;;;;;11.90;8.60;;;;;;;25.26;66.23;96983.19;5088919;28;20183;-74
2023/08/26 01:38:25;;;;;;;8.77;7.87;;;;;;;25.09;66.60;96977.97;5089434;28;20198;-72
2023/08/26 01:40:56;;;;;;;13.67;8.93;;;;;;;24.55;67.80;96953.56;5070729;28;20198;-72
2023/08/26 01:43:24;;;;;;;9.80;8.80;;;;;;;24.22;69.43;96957.84;5108145;28;20219;-77
2023/08/26 01:45:53;;;;;;;9.80;8.53;;;;;;;23.87;70.30;96946.47;5088489;28;20270;-80
2023/08/26 01:48:20;;;;;;;10.40;8.60;;;;;;;23.94;69.92;96971.34;5072559;28;20585;-79
2023/08/26 01:50:47;;;;;;;12.17;9.87;;;;;;;24.19;68.96;96975.88;5088690;28;20238;-86
2023/08/26 01:53:14;;;;;;;13.07;8.97;;;;;;;24.32;68.96;96964.88;5088682;28;20197;-79
2023/08/26 01:55:42;;;;;;;11.97;8.83;;;;;;;24.56;67.91;96957.88;5107750;28;20689;-81
2023/08/26 01:58:09;;;;;;;11.70;9.13;;;;;;;24.72;67.28;96973.84;5088030;28;20217;-76
2023/08/26 02:00:36;;;;;;;10.73;9.03;;;;;;;24.72;66.11;96959.75;5089721;28;20631;-80
2023/08/26 02:03:04;;;;;;;11.80;9.37;;;;;;;24.81;66.42;96970.25;5087919;28;20213;-77
2023/08/26 02:05:31;;;;;;;10.07;8.30;;;;;;;24.83;66.21;96968.28;5089303;28;20574;-79
2023/08/26 02:07:58;;;;;;;10.77;8.30;;;;;;;24.69;67.05;96965.41;5088730;28;20202;-78
2023/08/26 02:10:25;;;;;;;12.00;8.77;;;;;;;24.72;66.86;96971.19;5106757;28;20198;-77
2023/08/26 02:12:52;;;;;;;11.47;8.70;;;;;;;24.70;66.69;96959.09;5089352;28;20218;-81
2023/08/26 02:15:20;;;;;;;10.67;8.30;;;;;;;24.79;66.77;96958.19;5087756;28;20214;-82
2023/08/26 02:17:47;;;;;;;10.53;8.83;;;;;;;24.72;67.11;96963.25;5089280;28;20202;-75
2023/08/26 02:20:14;;;;;;;11.10;8.40;;;;;;;24.90;65.91;96965.81;5087741;28;20183;-76
2023/08/26 02:22:41;;;;;;;15.87;9.17;;;;;;;24.78;66.96;96961.81;5092002;28;20293;-75
2023/08/26 02:25:08;;;;;;;11.20;9.43;;;;;;;24.66;66.25;96952.47;5092237;28;20189;-75
2023/08/26 02:27:36;;;;;;;11.63;9.00;;;;;;;24.60;67.20;96963.69;5075325;28;20208;-87
2023/08/26 02:30:04;;;;;;;11.67;10.30;;;;;;;24.57;66.75;96970.13;5111485;28;20191;-85
2023/08/26 02:32:31;;;;;;;12.23;9.53;;;;;;;24.46;67.51;96954.50;5091983;28;20222;-78
2023/08/26 02:34:59;;;;;;;15.80;10.83;;;;;;;24.38;67.46;96964.25;5111402;28;20195;-74
2023/08/26 02:37:26;;;;;;;11.77;9.00;;;;;;;24.59;67.55;96977.91;5109826;28;20201;-80
2023/08/26 02:39:55;;;;;;;12.27;10.17;;;;;;;24.58;67.46;96968.31;5058939;28;20655;-77
2023/08/26 02:42:22;;;;;;;13.80;10.00;;;;;;;24.25;67.86;96962.81;5110684;28;20191;-83
2023/08/26 02:44:49;;;;;;;11.47;9.67;;;;;;;23.57;70.50;96941.63;5074950;28;20236;-78
2023/08/26 02:47:16;;;;;;;11.00;9.80;;;;;;;23.33;71.16;96939.59;5092600;28;20411;-78
2023/08/26 02:49:44;;;;;;;12.80;9.97;;;;;;;23.47;70.91;96962.03;5091867;28;20181;-78
2023/08/26 02:52:11;;;;;;;11.77;10.40;;;;;;;23.33;71.43;96971.31;5093230;28;20185;-77
2023/08/26 02:54:38;;;;;;;14.40;11.13;;;;;;;23.14;71.88;96959.00;5117314;28;20187;-74
2023/08/26 02:57:05;;;;;;;13.07;10.40;;;;;;;23.00;72.45;96964.00;5096355;28;20278;-75
2023/08/26 02:59:32;;;;;;;15.23;11.13;;;;;;;22.96;72.03;96955.53;5109656;28;20185;-84
2023/08/26 03:02:03;;;;;;;16.83;11.57;;;;;;;23.00;72.03;96971.94;5075645;28;20572;-77
2023/08/26 03:04:33;;;;;;;13.07;11.63;;;;;;;23.34;70.26;96973.81;5092176;28;20215;-72
2023/08/26 03:07:00;;;;;;;11.83;9.90;;;;;;;23.54;69.77;96977.13;5088115;28;20202;-77
2023/08/26 03:09:29;;;;;;;14.73;11.13;;;;;;;23.72;68.57;96962.06;5072189;28;20683;-72
2023/08/26 03:11:56;;;;;;;14.93;9.67;;;;;;;23.92;68.64;96971.50;5070398;28;20577;-74
2023/08/26 03:14:23;;;;;;;10.47;9.33;;;;;;;23.86;68.56;96964.19;5071864;28;20193;-73
2023/08/26 03:16:51;;;;;;;10.57;9.33;;;;;;;23.87;68.32;96949.97;5089128;28;20660;-85
2023/08/26 03:19:19;;;;;;;12.70;10.10;;;;;;;23.72;68.94;96962.06;5071357;28;20249;-75
2023/08/26 03:21:46;;;;;;;12.10;9.77;;;;;;;23.63;68.87;96981.53;5071566;28;20198;-78
2023/08/26 03:24:16;;;;;;;12.03;10.07;;;;;;;23.53;68.98;96969.34;5070415;28;20299;-70
2023/08/26 03:26:46;;;;;;;12.17;9.67;;;;;;;23.26;70.46;96980.78;5071771;28;20183;-71
2023/08/26 03:29:14;;;;;;;12.37;9.73;;;;;;;23.19;70.77;96977.91;5088117;28;20253;-71
2023/08/26 03:31:45;;;;;;;12.10;10.23;;;;;;;22.97;71.05;96969.56;5071723;28;20188;-82
2023/08/26 03:34:16;;;;;;;15.63;10.07;;;;;;;23.02;71.41;96977.91;5054061;28;20196;-83
2023/08/26 03:36:43;;;;;;;12.03;9.37;;;;;;;23.19;70.63;96985.00;5070789;28;20188;-78
2023/08/26 03:39:10;;;;;;;12.63;10.10;;;;;;;22.96;71.31;96981.09;5071381;28;20225;-75
2023/08/26 03:41:38;;;;;;;15.83;9.57;;;;;;;22.83;71.92;96963.00;5088104;28;20627;-71
2023/08/26 03:44:05;;;;;;;12.43;10.27;;;;;;;22.91;71.96;96972.81;5054612;28;20219;-74
2023/08/26 03:46:32;;;;;;;12.53;9.70;;;;;;;22.64;72.62;96974.47;5069942;28;20270;-73
2023/08/26 03:49:00;;;;;;;11.97;9.80;;;;;;;22.82;72.17;96981.59;5071562;28;20205;-72
2023/08/26 03:51:28;;;;;;;11.30;9.40;;;;;;;22.79;72.54;96972.19;5088414;28;20189;-71
2023/08/26 03:53:55;;;;;;;11.93;9.57;;;;;;;23.01;71.74;96984.16;5088552;28;20187;-81
2023/08/26 03:56:22;;;;;;;11.97;8.90;;;;;;;22.96;71.53;96967.88;5071388;28;20204;-73
2023/08/26 03:58:52;;;;;;;11.10;9.67;;;;;;;22.95;71.08;96966.25;5087716;28;20260;-72
2023/08/26 04:01:20;;;;;;;11.57;9.67;;;;;;;22.96;71.09;96991.66;5088758;28;20200;-70
2023/08/26 04:03:51;;;;;;;12.43;9.07;;;;;;;22.97;71.06;96988.06;5069014;28;20254;-73
2023/08/26 04:06:18;;;;;;;13.97;9.93;;;;;;;23.06;70.80;96988.00;5071044;28;20261;-80
2023/08/26 04:08:46;;;;;;;10.57;9.33;;;;;;;23.38;69.53;96991.03;5069972;28;20192;-73
2023/08/26 04:11:15;;;;;;;13.33;9.10;;;;;;;23.38;69.24;96985.75;5053404;28;20594;-73
2023/08/26 04:13:45;;;;;;;16.27;9.90;;;;;;;23.53;68.82;96985.22;5070793;28;20193;-72
2023/08/26 04:16:15;;;;;;;13.20;9.50;;;;;;;23.53;68.30;96990.50;5069405;28;20538;-81
2023/08/26 04:18:43;;;;;;;10.93;9.33;;;;;;;23.29;69.69;96988.41;5070760;28;20181;-72
2023/08/26 04:21:10;;;;;;;15.03;9.13;;;;;;;23.33;69.48;96990.63;5069069;28;20194;-76
2023/08/26 04:23:37;;;;;;;10.90;9.13;;;;;;;23.24;69.11;96982.75;5070513;28;20661;-73
2023/08/26 04:26:05;;;;;;;13.23;9.97;;;;;;;23.31;69.95;96991.72;5069751;28;20211;-71
2023/08/26 04:28:33;;;;;;;11.17;9.40;;;;;;;23.16;69.36;96982.66;5052783;28;20246;-72
2023/08/26 04:31:00;;;;;;;13.07;10.20;;;;;;;23.33;69.61;96993.28;5070166;28;20280;-75
2023/08/26 04:33:29;;;;;;;15.03;10.77;;;;;;;23.22;70.29;96995.28;5068639;28;20196;-76
2023/08/26 04:35:57;;;;;;;14.20;10.40;;;;;;;23.05;70.30;96988.16;5088252;28;20550;-73
2023/08/26 04:38:25;;;;;;;12.57;9.90;;;;;;;22.97;71.19;96990.69;5035231;28;20195;-73
2023/08/26 04:40:52;;;;;;;13.90;9.43;;;;;;;23.10;70.95;96999.13;5088170;28;20203;-72
2023/08/26 04:43:19;;;;;;;13.97;9.77;;;;;;;23.40;69.73;97002.28;5069070;28;20209;-75
2023/08/26 04:45:46;;;;;;;13.37;9.57;;;;;;;23.55;68.97;97007.03;5086772;28;20207;-76
2023/08/26 04:48:14;;;;;;;13.00;9.20;;;;;;;23.38;69.61;97012.19;5070054;28;20196;-75
2023/08/26 04:50:43;;;;;;;14.83;9.60;;;;;;;23.57;69.60;97000.63;5068538;28;20223;-72
2023/08/26 04:53:11;;;;;;;13.40;10.17;;;;;;;23.64;69.19;97000.88;5088199;28;20608;-73
2023/08/26 04:55:39;;;;;;;10.13;8.97;;;;;;;23.58;69.07;97012.03;5051997;28;20191;-74
2023/08/26 04:58:08;;;;;;;13.17;10.40;;;;;;;23.71;68.87;97010.69;5069882;28;20187;-75
2023/08/26 05:00:36;;;;;;;12.00;9.07;;;;;;;23.74;68.81;97005.06;5086817;28;20193;-73
2023/08/26 05:03:04;;;;;;;14.13;9.60;;;;;;;24.18;67.42;97012.09;5086919;28;20195;-74
2023/08/26 05:05:31;;;;;;;13.17;9.07;;;;;;;24.60;65.89;97014.84;5087699;28;20251;-76
2023/08/26 05:07:59;;;;;;;13.20;8.50;;;;;;;24.91;64.53;97012.53;5068178;28;20609;-73
2023/08/26 05:10:26;;;;;;;10.87;9.03;;;;;;;25.26;63.85;97009.69;5069707;28;20696;-70
2023/08/26 05:12:53;;;;;;;21.33;9.83;;;;;;;25.56;62.60;97005.63;5067889;28;20670;-78
2023/08/26 05:15:22;;;;;;;14.77;9.10;;;;;;;25.89;61.96;97006.47;5087673;28;20233;-76
2023/08/26 05:17:50;;;;;;;12.63;8.70;;;;;;;25.96;60.42;97008.31;5068424;28;20664;-86
2023/08/26 05:20:19;;;;;;;14.30;9.87;;;;;;;25.88;60.91;97004.84;5052590;28;20282;-72
2023/08/26 05:22:46;;;;;;;12.73;9.40;;;;;;;25.90;60.59;96993.06;5052499;28;20197;-77
2023/08/26 05:25:13;;;;;;;9.77;8.63;;;;;;;25.83;60.71;97007.97;5067643;28;20230;-81
2023/08/26 05:27:40;;;;;;;12.03;9.47;;;;;;;26.08;60.08;96996.41;5087674;28;20273;-74
2023/08/26 05:30:12;;;;;;;11.50;9.10;;;;;;;26.39;59.17;97009.81;5068049;28;20220;-80
2023/08/26 05:32:43;;;;;;;11.43;8.90;;;;;;;25.58;60.72;96993.88;5069497;28;20185;-72
2023/08/26 05:35:12;;;;;;;10.40;8.30;;;;;;;25.65;60.77;97002.00;5088920;28;20267;-73
2023/08/26 05:37:44;;;;;;;11.13;7.97;;;;;;;25.89;60.81;97004.66;5088776;28;20183;-73
2023/08/26 05:40:13;;;;;;;14.53;8.57;;;;;;;25.91;59.70;96967.34;5069556;28;20223;-72
2023/08/26 05:42:41;;;;;;;9.37;7.63;;;;;;;26.21;58.66;97006.53;5067344;28;20200;-72
2023/08/26 05:45:09;;;;;;;10.27;8.00;;;;;;;26.43;58.89;96997.84;5085226;28;20296;-78
2023/08/26 05:47:37;;;;;;;10.67;8.07;;;;;;;26.87;57.42;97014.22;5084010;28;20187;-72
2023/08/26 05:50:05;;;;;;;13.23;9.30;;;;;;;27.25;56.60;97010.72;5075904;28;20220;-75
2023/08/26 05:52:32;;;;;;;10.23;8.10;;;;;;;26.69;57.82;97000.28;5043074;28;20204;-72
2023/08/26 05:55:00;;;;;;;11.77;8.60;;;;;;;27.02;57.46;97023.09;5064572;28;20574;-72
2023/08/26 05:57:29;;;;;;;11.17;7.80;;;;;;;27.18;56.44;97001.78;5069312;28;20193;-76
2023/08/26 05:59:56;;;;;;;9.57;8.07;;;;;;;27.24;57.24;97012.53;5051299;28;20200;-74
2023/08/26 06:02:23;;;;;;;13.47;8.93;;;;;;;27.29;56.81;96994.22;5053101;28;20267;-73
2023/08/26 06:04:51;;;;;;;13.57;9.33;;;;;;;27.33;57.43;96995.53;5050402;28;20221;-73
2023/08/26 06:07:19;;;;;;;12.47;8.10;;;;;;;26.69;57.79;96995.78;5068922;28;20200;-79
2023/08/26 06:09:48;;;;;;;11.80;8.83;;;;;;;26.96;58.02;97014.00;5051095;28;20288;-72
2023/08/26 06:12:19;;;;;;;13.67;9.10;;;;;;;26.97;58.30;97013.00;5052120;28;20280;-74
2023/08/26 06:14:46;;;;;;;12.00;8.93;;;;;;;27.19;58.52;97006.09;5070548;28;20284;-76
2023/08/26 06:17:14;;;;;;;11.77;9.23;;;;;;;27.39;57.45;97013.50;5067414;28;20247;-73
2023/08/26 06:19:42;;;;;;;10.77;9.23;;;;;;;27.35;57.37;96993.56;5070714;28;20181;-75
2023/08/26 06:22:10;;;;;;;12.23;9.43;;;;;;;27.46;57.06;97020.78;5065573;28;20212;-75
2023/08/26 06:24:40;;;;;;;12.80;8.87;;;;;;;28.00;57.19;97019.78;5070810;28;20594;-73
2023/08/26 06:27:07;;;;;;;10.97;8.40;;;;;;;28.13;55.37;97020.81;5070112;28;20194;-73
2023/08/26 06:29:36;;;;;;;12.80;8.93;;;;;;;27.64;56.01;97027.47;5088614;28;20224;-73
2023/08/26 06:32:06;;;;;;;10.60;8.97;;;;;;;27.74;55.93;97017.44;5051602;28;20584;-76
2023/08/26 06:34:36;;;;;;;13.57;10.23;;;;;;;28.05;55.14;97001.41;5067214;28;20185;-82
2023/08/26 06:37:03;;;;;;;12.60;9.80;;;;;;;28.42;54.47;97016.59;5068796;28;20186;-75
2023/08/26 06:39:31;;;;;;;11.93;9.23;;;;;;;28.45;53.67;97029.53;5067153;28;20232;-84
2023/08/26 06:42:01;;;;;;;12.60;9.10;;;;;;;28.11;52.97;97029.97;5052248;28;20189;-74
2023/08/26 06:44:31;;;;;;;9.90;8.23;;;;;;;28.10;52.56;97020.34;5052358;28;20224;-83
2023/08/26 06:46:59;;;;;;;12.73;9.03;;;;;;;28.61;51.84;97035.56;5052512;28;20643;-73
2023/08/26 06:49:29;;;;;;;11.57;8.63;;;;;;;29.03;51.21;97029.59;5071966;28;20189;-75
2023/08/26 06:51:56;;;;;;;10.43;9.10;;;;;;;29.29;50.55;97034.47;5077184;28;20220;-80
2023/08/26 06:54:24;;;;;;;11.23;8.10;;;;;;;29.49;49.71;97033.69;5051859;28;20512;-76
2023/08/26 06:56:53;;;;;;;11.17;9.67;;;;;;;29.57;49.15;97036.25;5068095;28;20200;-75
2023/08/26 06:59:21;;;;;;;12.33;9.23;;;;;;;29.55;48.77;97037.47;5052846;28;20203;-73
2023/08/26 07:01:50;;;;;;;20.23;8.70;;;;;;;29.88;48.06;97036.03;5068625;28;20202;-80
2023/08/26 07:04:19;;;;;;;13.10;8.53;;;;;;;30.06;46.53;97044.41;5086520;28;20318;-74
2023/08/26 07:06:50;;;;;;;13.20;8.07;;;;;;;30.23;45.49;97035.09;5072577;28;20243;-76
2023/08/26 07:09:22;;;;;;;13.27;10.43;;;;;;;30.06;45.77;97032.88;5087480;28;20204;-73
2023/08/26 07:11:49;;;;;;;13.67;9.63;;;;;;;29.91;46.84;97038.28;5088842;28;20207;-74
2023/08/26 07:14:17;;;;;;;16.37;7.23;;;;;;;29.83;43.34;97021.56;5088713;28;20752;-81
2023/08/26 07:16:44;;;;;;;7.23;5.10;;;;;;;28.88;43.82;97026.94;5088466;28;20200;-77
2023/08/26 07:19:12;;;;;;;7.83;5.60;;;;;;;29.13;43.49;97038.16;5088444;28;20220;-72
2023/08/26 07:21:39;;;;;;;8.40;5.83;;;;;;;29.47;42.83;97034.91;5088346;28;20676;-76
2023/08/26 07:24:09;;;;;;;9.60;6.27;;;;;;;29.33;43.74;97017.91;5089189;28;20220;-81
2023/08/26 07:26:36;;;;;;;15.97;8.27;;;;;;;29.43;44.58;97037.13;5069664;28;20196;-82
2023/08/26 07:29:03;;;;;;;24.07;8.87;;;;;;;29.50;44.77;97039.88;5088242;28;20284;-72
2023/08/26 07:31:33;;;;;;;16.60;7.83;;;;;;;29.70;45.12;97046.25;5086486;28;20886;-72
2023/08/26 07:34:02;;;;;;;11.90;7.10;;;;;;;29.88;45.56;97048.53;5089062;28;20249;-72
2023/08/26 07:36:31;;;;;;;9.67;6.63;;;;;;;29.50;44.76;97051.38;5088893;28;20193;-73
2023/08/26 07:39:00;;;;;;;11.77;6.87;;;;;;;29.66;44.09;97042.31;5086158;28;20274;-79
2023/08/26 07:41:28;;;;;;;7.63;6.63;;;;;;;29.61;44.69;97047.41;5087841;28;20204;-81
2023/08/26 07:43:55;;;;;;;9.40;7.03;;;;;;;29.62;45.18;97046.38;5087914;28;20189;-77
2023/08/26 07:46:22;;;;;;;8.27;6.13;;;;;;;29.20;45.38;97046.28;5089944;28;20286;-81
2023/08/26 07:48:56;;;;;;;6.70;6.00;;;;;;;29.07;46.22;97032.72;5086635;28;20247;-74
2023/08/26 07:51:23;;;;;;;7.33;5.50;;;;;;;29.27;44.44;97044.50;5088241;28;20229;-78
2023/08/26 07:53:50;;;;;;;7.77;5.87;;;;;;;28.94;45.76;97044.88;5087340;28;20563;-80
2023/08/26 07:56:18;;;;;;;28.30;7.37;;;;;;;29.10;44.92;97045.69;5087872;28;20295;-73
2023/08/26 07:58:45;;;;;;;11.60;6.13;;;;;;;29.22;45.70;97038.91;5088563;28;20236;-73
2023/08/26 08:01:13;;;;;;;8.83;6.10;;;;;;;29.38;45.94;97052.03;5090384;28;20188;-78
2023/08/26 08:03:44;;;;;;;9.30;6.97;;;;;;;29.45;44.71;97052.97;5093565;28;20200;-82
2023/08/26 08:06:13;;;;;;;7.60;6.27;;;;;;;29.47;45.72;97032.25;5073368;28;20221;-75
2023/08/26 08:08:40;;;;;;;8.60;6.20;;;;;;;29.54;45.74;97033.97;5088874;28;20636;-74
2023/08/26 08:11:07;;;;;;;9.80;6.53;;;;;;;29.96;44.41;97037.72;5088872;28;20208;-75
2023/08/26 08:13:35;;;;;;;8.40;6.30;;;;;;;29.55;45.63;97024.94;5090880;28;20192;-78
2023/08/26 08:16:03;;;;;;;9.03;6.40;;;;;;;30.04;45.29;97046.44;5072382;28;20245;-77
2023/08/26 08:18:31;;;;;;;9.10;6.00;;;;;;;29.70;43.53;96998.19;5087535;28;20197;-83
2023/08/26 08:20:59;;;;;;;14.90;8.03;;;;;;;30.51;42.66;97037.84;5070678;28;20193;-76
2023/08/26 08:23:33;;;;;;;8.17;6.03;;;;;;;30.11;44.20;97041.97;5087836;28;20200;-74
2023/08/26 08:26:00;;;;;;;8.50;6.40;;;;;;;30.14;43.39;97030.91;5070883;28;20224;-76
2023/08/26 08:28:27;;;;;;;9.97;8.10;;;;;;;30.05;43.10;97013.34;5070801;28;20227;-73
2023/08/26 08:30:55;;;;;;;9.10;6.20;;;;;;;30.00;43.95;97014.97;5087774;28;20567;-76
2023/08/26 08:33:22;;;;;;;11.73;7.30;;;;;;;29.86;43.88;97026.53;5086982;28;20636;-72
2023/08/26 08:35:50;;;;;;;10.67;7.20;;;;;;;30.06;43.29;97033.72;5085056;28;20194;-76
2023/08/26 08:38:17;;;;;;;9.20;7.60;;;;;;;30.68;42.41;97020.47;5069510;28;20295;-73
2023/08/26 08:40:46;;;;;;;10.30;6.40;;;;;;;31.08;42.18;97022.38;5088334;28;20362;-73
2023/08/26 08:43:20;;;;;;;9.50;6.73;;;;;;;31.33;41.92;97022.69;5072372;28;20192;-75
2023/08/26 08:45:52;;;;;;;8.20;6.40;;;;;;;30.89;42.29;96984.84;5089288;28;20238;-78
2023/08/26 08:48:20;;;;;;;9.75;6.65;;;;;;;31.29;41.86;97032.16;5088402;28;20615;-73
2023/08/26 08:50:49;;;;;;;10.07;6.47;;;;;;;30.79;42.94;97025.25;5108615;28;20214;-80
2023/08/26 08:53:25;;;;;;;10.70;6.93;;;;;;;31.03;41.80;97026.69;5106577;28;20181;-76
2023/08/26 08:55:56;;;;;;;6.95;6.25;;;;;;;31.23;41.81;97028.44;5107914;28;20216;-82
2023/08/26 08:58:26;;;;;;;6.22;5.63;;;;;;;31.23;41.57;97027.59;5107086;28;20215;-85
2023/08/26 09:00:54;;;;;;;7.60;6.40;;;;;;;31.00;42.62;97027.91;5089078;28;20184;-75
2023/08/26 09:03:23;;;;;;;7.70;6.20;;;;;;;30.55;43.98;97017.69;5089561;28;20219;-76
2023/08/26 09:05:52;;;;;;;7.70;6.50;;;;;;;30.62;43.22;97015.91;5071002;28;20215;-77
2023/08/26 09:08:19;;;;;;;9.00;6.60;;;;;;;30.81;42.74;97015.19;5108530;28;20283;-78
2023/08/26 09:10:47;;;;;;;7.47;6.37;;;;;;;30.76;42.61;97006.13;5088218;28;20237;-85
2023/08/26 09:13:14;;;;;;;9.38;7.05;;;;;;;30.93;42.40;97016.34;5089398;28;20202;-81
2023/08/26 09:15:42;;;;;;;7.80;6.07;;;;;;;30.75;42.73;97002.59;5106432;28;20199;-74
2023/08/26 09:18:12;;;;;;;7.00;6.30;;;;;;;31.02;41.46;96977.69;5071797;28;20206;-78
2023/08/26 09:20:40;;;;;;;6.75;5.90;;;;;;;31.25;40.97;96982.72;5107716;28;20540;-80
2023/08/26 09:23:10;;;;;;;8.43;6.13;;;;;;;31.05;42.18;96990.69;5088127;28;20623;-78
2023/08/26 09:25:38;;;;;;;8.17;6.23;;;;;;;30.83;42.44;96980.25;5107505;28;20307;-81
2023/08/26 09:28:06;;;;;;;9.27;7.07;;;;;;;31.26;41.43;96990.53;5054356;28;20659;-73
2023/08/26 09:30:33;;;;;;;9.20;6.07;;;;;;;31.14;40.87;96986.00;5107251;28;20192;-80
2023/08/26 09:33:11;;;;;;;10.93;6.63;;;;;;;31.64;41.24;96988.22;5106451;28;20191;-78
2023/08/26 09:35:49;;;;;;;10.27;6.30;;;;;;;31.94;39.57;96981.50;5106055;28;20240;-76
2023/08/26 09:38:21;;;;;;;7.35;6.03;;;;;;;32.07;39.65;96973.47;5089229;28;20196;-84
2023/08/26 09:40:59;;;;;;;8.25;6.13;;;;;;;31.42;40.42;96973.34;5087961;28;20251;-75
2023/08/26 09:44:06;;;;;;;8.50;6.22;;;;;;;31.66;39.70;96982.66;5054236;28;20207;-79
2023/08/26 09:47:04;;;;;;;8.32;5.97;;;;;;;32.00;39.77;96986.06;5066269;28;20821;-77
2023/08/26 09:50:12;;;;;;;9.57;6.47;;;;;;;31.73;40.18;96973.63;5070347;28;20242;-78
2023/08/26 09:53:33;;;;;;;8.98;6.43;;;;;;;32.08;38.86;96980.50;5049472;28;20182;-73
2023/08/26 09:56:15;;;;;;;8.55;6.03;;;;;;;32.11;38.83;96946.28;5081894;28;20680;-73
2023/08/26 09:58:42;;;;;;;10.63;6.38;;;;;;;32.31;38.93;96963.19;5067395;28;20211;-81
2023/08/26 10:01:13;;;;;;;7.43;6.00;;;;;;;32.32;38.42;96932.63;5068362;28;20193;-76
2023/08/26 10:03:44;;;;;;;10.10;5.82;;;;;;;32.13;39.26;96971.03;5050829;28;20210;-80
2023/08/26 10:06:13;;;;;;;11.43;5.95;;;;;;;32.44;39.17;96965.84;5085522;28;20307;-75
2023/08/26 10:08:41;;;;;;;8.52;5.90;;;;;;;32.58;38.51;96964.81;5068926;28;20200;-80
2023/08/26 10:11:10;;;;;;;6.30;5.70;;;;;;;32.06;39.00;96958.44;5087158;28;20193;-81
2023/08/26 10:13:42;;;;;;;8.35;6.10;;;;;;;31.97;39.44;96946.28;5098793;28;20257;-76
2023/08/26 10:16:11;;;;;;;8.30;6.20;;;;;;;32.24;39.65;96952.44;5089027;28;20296;-76
2023/08/26 10:18:56;;;;;;;8.52;6.07;;;;;;;32.02;39.65;96965.25;5092299;28;20223;-84
2023/08/26 10:21:24;;;;;;;7.75;6.32;;;;;;;31.97;39.36;96954.31;5114802;28;20215;-73
2023/08/26 10:23:52;;;;;;;6.82;6.13;;;;;;;31.73;39.63;96954.88;5071247;28;20241;-79
2023/08/26 10:26:19;;;;;;;11.25;6.05;;;;;;;32.16;39.51;96949.16;5088445;28;20222;-76
2023/08/26 10:28:48;;;;;;;8.98;6.55;;;;;;;31.76;39.71;96943.75;5070469;28;20668;-79
2023/08/26 10:31:16;;;;;;;6.75;6.15;;;;;;;32.33;38.51;96953.06;5087937;28;20230;-74
2023/08/26 10:34:05;;;;;;;12.45;6.60;;;;;;;32.48;39.07;96951.03;5088242;28;20328;-73
2023/08/26 10:36:37;;;;;;;8.50;6.68;;;;;;;32.46;38.51;96953.88;5105697;28;20227;-80
2023/08/26 10:39:26;;;;;;;9.38;6.53;;;;;;;32.85;37.99;96953.81;5107459;28;20312;-77
2023/08/26 10:42:13;;;;;;;9.18;7.03;;;;;;;32.99;37.82;96937.69;5106021;28;20185;-74
2023/08/26 10:44:56;;;;;;;9.25;6.30;;;;;;;33.21;37.68;96939.88;5092607;28;20200;-75
2023/08/26 10:47:40;;;;;;;8.05;6.43;;;;;;;33.32;37.82;96927.63;5091692;28;20192;-71
2023/08/26 10:50:22;;;;;;;8.90;6.07;;;;;;;33.40;37.47;96928.19;5108938;28;20176;-71
2023/08/26 10:52:59;;;;;;;7.68;6.63;;;;;;;33.48;37.83;96941.38;5110652;28;20576;-72
2023/08/26 10:55:30;;;;;;;10.43;6.90;;;;;;;33.49;37.10;96943.03;5110149;28;20198;-74
2023/08/26 10:58:01;;;;;;;8.73;6.90;;;;;;;33.22;37.58;96932.66;5110411;28;20184;-75
2023/08/26 11:00:29;;;;;;;7.30;6.60;;;;;;;32.37;38.50;96917.59;5092231;28;20228;-72
2023/08/26 11:02:57;;;;;;;8.85;7.10;;;;;;;32.47;39.03;96906.44;5108799;28;20211;-74
2023/08/26 11:05:25;;;;;;;10.35;6.80;;;;;;;32.65;39.06;96928.06;5110168;28;20310;-73
2023/08/26 11:07:53;;;;;;;6.97;6.30;;;;;;;32.63;38.60;96920.22;5090771;28;20188;-73
2023/08/26 11:10:28;;;;;;;9.07;7.43;;;;;;;32.59;38.70;96912.81;5110058;28;20675;-75
2023/08/26 11:12:56;;;;;;;8.85;7.57;;;;;;;32.92;38.26;96918.91;5105362;28;20554;-74
2023/08/26 11:15:23;;;;;;;8.40;7.60;;;;;;;32.65;38.75;96917.34;5109751;28;20601;-76
2023/08/26 11:17:50;;;;;;;10.93;7.40;;;;;;;33.09;38.50;96916.59;5075740;28;20196;-72
2023/08/26 11:20:18;;;;;;;9.48;7.57;;;;;;;33.46;37.46;96921.13;5108503;28;20210;-77
2023/08/26 11:22:46;;;;;;;10.57;7.05;;;;;;;33.64;36.07;96914.03;5092350;28;20659;-76
2023/08/26 11:25:15;;;;;;;9.07;7.50;;;;;;;33.96;36.14;96905.94;5090823;28;20294;-72
2023/08/26 11:27:45;;;;;;;13.15;7.22;;;;;;;34.01;36.40;96909.63;5107564;28;20225;-80
2023/08/26 11:30:12;;;;;;;10.38;7.40;;;;;;;33.50;36.49;96907.09;5080224;28;20197;-79
2023/08/26 11:32:40;;;;;;;8.60;6.90;;;;;;;33.56;36.23;96902.72;5064393;28;20189;-75
2023/08/26 11:35:12;;;;;;;9.18;7.07;;;;;;;33.56;36.52;96887.44;5071416;28;20197;-79
2023/08/26 11:37:42;;;;;;;11.18;7.53;;;;;;;33.80;36.41;96882.28;5087847;28;20703;-80